createdAt,value
2023-02-09T00:01:00.943Z,231
2023-02-09T00:02:08.852Z,232
2023-02-09T00:03:15.664Z,228
2023-02-09T00:04:22.576Z,227
2023-02-09T00:05:29.492Z,224
2023-02-09T00:06:39.616Z,220
2023-02-09T00:07:46.492Z,225
2023-02-09T00:08:53.469Z,223
2023-02-09T00:10:00.443Z,228
2023-02-09T00:11:07.267Z,223
2023-02-09T00:12:15.236Z,224
2023-02-09T00:13:27.178Z,217
2023-02-09T00:14:34.032Z,220
2023-02-09T00:15:41.015Z,220
2023-02-09T00:16:50.781Z,219
2023-02-09T00:17:57.552Z,219
2023-02-09T00:19:05.285Z,214
2023-02-09T00:20:13.215Z,205
2023-02-09T00:21:20.150Z,209
2023-02-09T00:22:28.065Z,203
2023-02-09T00:23:34.934Z,205
2023-02-09T00:24:41.749Z,186
2023-02-09T00:25:48.721Z,185
2023-02-09T00:26:55.671Z,184
2023-02-09T00:28:02.573Z,173
2023-02-09T00:29:10.349Z,156
2023-02-09T00:30:17.144Z,154
2023-02-09T00:31:25.182Z,150
2023-02-09T00:32:31.912Z,146
2023-02-09T00:33:38.784Z,143
2023-02-09T00:34:47.706Z,142
2023-02-09T00:35:54.577Z,143
2023-02-09T00:37:03.312Z,139
2023-02-09T00:38:10.086Z,139
2023-02-09T00:39:20.092Z,146
2023-02-09T00:40:26.912Z,141
2023-02-09T00:41:33.873Z,151
2023-02-09T00:42:45.831Z,157
2023-02-09T00:43:52.775Z,153
2023-02-09T00:45:02.065Z,155
2023-02-09T00:46:10.460Z,144
2023-02-09T00:47:19.013Z,149
2023-02-09T00:48:26.972Z,147
2023-02-09T00:49:33.760Z,145
2023-02-09T00:50:41.425Z,127
2023-02-09T00:51:48.288Z,137
2023-02-09T00:52:56.111Z,128
2023-02-09T00:54:03.125Z,132
2023-02-09T00:55:10.842Z,137
2023-02-09T00:56:19.483Z,137
2023-02-09T00:57:27.372Z,136
2023-02-09T00:58:34.807Z,128
2023-02-09T00:59:42.508Z,123
2023-02-09T01:00:49.655Z,129
2023-02-09T01:01:56.519Z,137
2023-02-09T01:03:04.260Z,134
2023-02-09T01:04:11.246Z,124
2023-02-09T01:05:18.064Z,135
2023-02-09T01:06:25.736Z,130
2023-02-09T01:07:32.658Z,126
2023-02-09T01:08:42.407Z,131
2023-02-09T01:09:49.234Z,124
2023-02-09T01:10:58.000Z,126
2023-02-09T01:12:10.093Z,126
2023-02-09T01:13:17.969Z,126
2023-02-09T01:14:24.774Z,122
2023-02-09T01:15:32.613Z,124
2023-02-09T01:16:41.267Z,118
2023-02-09T01:17:48.059Z,124
2023-02-09T01:18:55.726Z,124
2023-02-09T01:20:02.666Z,132
2023-02-09T01:21:09.981Z,121
2023-02-09T01:22:17.799Z,121
2023-02-09T01:23:24.674Z,127
2023-02-09T01:24:32.446Z,125
2023-02-09T01:25:40.114Z,129
2023-02-09T01:26:47.112Z,129
2023-02-09T01:27:55.135Z,132
2023-02-09T01:29:02.873Z,136
2023-02-09T01:30:10.820Z,120
2023-02-09T01:31:17.854Z,135
2023-02-09T01:32:30.774Z,147
2023-02-09T01:33:38.435Z,157
2023-02-09T01:34:45.251Z,140
2023-02-09T01:35:55.213Z,140
2023-02-09T01:37:02.970Z,134
2023-02-09T01:38:09.824Z,153
2023-02-09T01:39:17.506Z,146
2023-02-09T01:40:25.290Z,164
2023-02-09T01:41:32.059Z,182
2023-02-09T01:42:41.519Z,185
2023-02-09T01:43:48.408Z,187
2023-02-09T01:44:57.964Z,184
2023-02-09T01:46:08.809Z,172
2023-02-09T01:47:18.116Z,170
2023-02-09T01:48:25.019Z,165
2023-02-09T01:49:31.915Z,162
2023-02-09T01:50:41.648Z,157
2023-02-09T01:51:48.828Z,163
2023-02-09T01:53:00.796Z,155
2023-02-09T01:54:07.971Z,148
2023-02-09T01:55:17.784Z,153
2023-02-09T01:56:25.567Z,156
2023-02-09T01:57:33.354Z,165
2023-02-09T01:58:41.448Z,167
2023-02-09T01:59:50.272Z,171
2023-02-09T02:00:59.078Z,189
2023-02-09T02:02:04.868Z,189
2023-02-09T02:03:12.557Z,176
2023-02-09T02:04:20.454Z,162
2023-02-09T02:05:28.136Z,174
2023-02-09T02:06:36.144Z,193
2023-02-09T02:07:43.028Z,196
2023-02-09T02:08:49.848Z,171
2023-02-09T02:09:59.733Z,173
2023-02-09T02:11:07.515Z,175
2023-02-09T02:12:14.639Z,151
2023-02-09T02:13:23.363Z,151
2023-02-09T02:14:31.635Z,197
2023-02-09T02:15:39.442Z,165
2023-02-09T02:16:51.409Z,152
2023-02-09T02:18:00.781Z,167
2023-02-09T02:19:15.858Z,166
2023-02-09T02:20:33.106Z,178
2023-02-09T02:21:43.180Z,161
2023-02-09T02:23:00.348Z,165
2023-02-09T02:24:12.299Z,145
2023-02-09T02:25:29.489Z,148
2023-02-09T02:26:43.248Z,147
2023-02-09T02:27:58.002Z,152
2023-02-09T02:29:15.245Z,134
2023-02-09T02:30:29.888Z,134
2023-02-09T02:31:41.994Z,134
2023-02-09T02:33:00.101Z,113
2023-02-09T02:34:11.279Z,109
2023-02-09T02:35:21.053Z,118
2023-02-09T02:36:33.091Z,106
2023-02-09T02:37:46.085Z,111
2023-02-09T02:38:58.036Z,114
2023-02-09T02:40:04.992Z,140
2023-02-09T02:41:17.681Z,141
2023-02-09T02:42:25.704Z,157
2023-02-09T02:43:48.020Z,161
2023-02-09T02:45:03.259Z,153
2023-02-09T02:46:13.091Z,157
2023-02-09T02:47:30.152Z,157
2023-02-09T02:48:37.097Z,139
2023-02-09T02:49:54.235Z,120
2023-02-09T02:51:02.271Z,110
2023-02-09T02:52:10.125Z,108
2023-02-09T02:53:16.990Z,110
2023-02-09T02:54:24.692Z,107
2023-02-09T02:55:31.584Z,107
2023-02-09T02:56:38.387Z,108
2023-02-09T02:57:48.720Z,117
2023-02-09T02:58:55.687Z,112
2023-02-09T03:00:03.438Z,116
2023-02-09T03:01:15.592Z,116
2023-02-09T03:02:22.641Z,110
2023-02-09T03:03:29.673Z,115
2023-02-09T03:04:36.652Z,114
2023-02-09T03:05:45.453Z,109
2023-02-09T03:06:53.222Z,108
2023-02-09T03:08:02.706Z,107
2023-02-09T03:09:09.515Z,102
2023-02-09T03:10:19.037Z,100
2023-02-09T03:11:34.685Z,107
2023-02-09T03:12:46.810Z,104
2023-02-09T03:14:03.900Z,104
2023-02-09T03:15:21.187Z,103
2023-02-09T03:16:33.142Z,104
2023-02-09T03:17:40.853Z,110
2023-02-09T03:18:52.721Z,110
2023-02-09T03:20:05.595Z,112
2023-02-09T03:21:17.548Z,120
2023-02-09T03:22:27.908Z,120
2023-02-09T03:23:42.562Z,114
2023-02-09T03:24:54.392Z,112
2023-02-09T03:26:03.523Z,123
2023-02-09T03:27:10.398Z,130
2023-02-09T03:28:20.078Z,137
2023-02-09T03:29:26.908Z,140
2023-02-09T03:30:33.839Z,148
2023-02-09T03:31:43.410Z,166
2023-02-09T03:32:50.224Z,174
2023-02-09T03:33:58.153Z,182
2023-02-09T03:35:05.774Z,180
2023-02-09T03:36:13.739Z,177
2023-02-09T03:37:20.670Z,180
2023-02-09T03:38:27.535Z,176
2023-02-09T03:39:35.637Z,175
2023-02-09T03:40:42.567Z,188
2023-02-09T03:41:50.798Z,173
2023-02-09T03:42:59.525Z,173
2023-02-09T03:44:08.576Z,180
2023-02-09T03:45:22.652Z,182
2023-02-09T03:46:31.468Z,176
2023-02-09T03:47:38.286Z,183
2023-02-09T03:48:47.972Z,189
2023-02-09T03:49:54.806Z,186
2023-02-09T03:51:01.765Z,178
2023-02-09T03:52:09.520Z,174
2023-02-09T03:53:16.397Z,171
2023-02-09T03:54:23.256Z,172
2023-02-09T03:55:30.238Z,171
2023-02-09T03:56:38.819Z,168
2023-02-09T03:57:45.693Z,167
2023-02-09T03:58:52.562Z,171
2023-02-09T03:59:59.438Z,165
2023-02-09T04:01:08.498Z,166
2023-02-09T04:02:15.615Z,165
2023-02-09T04:03:23.293Z,160
2023-02-09T04:04:32.041Z,155
2023-02-09T04:05:38.945Z,155
2023-02-09T04:06:46.736Z,153
2023-02-09T04:07:53.837Z,145
2023-02-09T04:09:00.768Z,150
2023-02-09T04:10:09.830Z,157
2023-02-09T04:11:17.560Z,151
2023-02-09T04:12:25.394Z,149
2023-02-09T04:13:33.100Z,148
2023-02-09T04:14:40.869Z,152
2023-02-09T04:15:47.876Z,148
2023-02-09T04:16:54.815Z,140
2023-02-09T04:18:01.672Z,144
2023-02-09T04:19:08.452Z,146
2023-02-09T04:20:19.591Z,136
2023-02-09T04:21:27.381Z,126
2023-02-09T04:22:35.079Z,131
2023-02-09T04:23:41.924Z,129
2023-02-09T04:24:48.755Z,127
2023-02-09T04:25:56.920Z,123
2023-02-09T04:27:03.979Z,116
2023-02-09T04:28:11.056Z,115
2023-02-09T04:29:17.981Z,115
2023-02-09T04:30:24.745Z,115
2023-02-09T04:31:34.837Z,120
2023-02-09T04:32:42.831Z,130
2023-02-09T04:33:51.935Z,137
2023-02-09T04:34:59.752Z,137
2023-02-09T04:36:08.658Z,186
2023-02-09T04:37:15.552Z,153
2023-02-09T04:38:22.406Z,144
2023-02-09T04:39:29.459Z,138
2023-02-09T04:40:38.331Z,108
2023-02-09T04:41:45.146Z,104
2023-02-09T04:42:52.100Z,103
2023-02-09T04:43:58.934Z,112
2023-02-09T04:45:06.567Z,105
2023-02-09T04:46:13.625Z,106
2023-02-09T04:47:21.309Z,122
2023-02-09T04:48:29.014Z,102
2023-02-09T04:49:36.771Z,90
2023-02-09T04:50:44.056Z,105
2023-02-09T04:51:50.481Z,94
2023-02-09T04:52:58.162Z,115
2023-02-09T04:54:06.052Z,110
2023-02-09T04:55:12.881Z,106
2023-02-09T04:56:20.739Z,98
2023-02-09T04:57:28.585Z,90
2023-02-09T04:58:40.658Z,96
2023-02-09T04:59:52.645Z,103
2023-02-09T05:01:00.594Z,104
2023-02-09T05:02:07.436Z,104
2023-02-09T05:03:14.332Z,104
2023-02-09T05:04:23.028Z,111
2023-02-09T05:05:29.854Z,108
2023-02-09T05:06:39.016Z,106
2023-02-09T05:07:46.030Z,96
2023-02-09T05:08:54.863Z,99
2023-02-09T05:10:01.836Z,108
2023-02-09T05:11:09.956Z,159
2023-02-09T05:12:16.797Z,136
2023-02-09T05:13:24.466Z,103
2023-02-09T05:14:31.430Z,106
2023-02-09T05:15:38.229Z,108
2023-02-09T05:16:45.369Z,127
2023-02-09T05:17:52.204Z,126
2023-02-09T05:19:00.208Z,124
2023-02-09T05:20:07.151Z,109
2023-02-09T05:21:14.233Z,105
2023-02-09T05:22:21.037Z,121
2023-02-09T05:23:28.072Z,132
2023-02-09T05:24:34.855Z,132
2023-02-09T05:25:42.672Z,142
2023-02-09T05:26:49.760Z,132
2023-02-09T05:27:56.667Z,143
2023-02-09T05:29:03.528Z,150
2023-02-09T05:30:12.122Z,154
2023-02-09T05:31:19.958Z,152
2023-02-09T05:32:26.900Z,130
2023-02-09T05:33:35.068Z,160
2023-02-09T05:34:41.929Z,141
2023-02-09T05:35:48.960Z,119
2023-02-09T05:36:55.969Z,117
2023-02-09T05:38:03.962Z,123
2023-02-09T05:39:11.010Z,135
2023-02-09T05:40:21.201Z,129
2023-02-09T05:41:28.293Z,124
2023-02-09T05:42:41.124Z,102
2023-02-09T05:43:48.005Z,94
2023-02-09T05:44:55.746Z,98
2023-02-09T05:46:02.654Z,85
2023-02-09T05:47:09.413Z,97
2023-02-09T05:48:17.177Z,101
2023-02-09T05:49:24.020Z,102
2023-02-09T05:50:33.565Z,98
2023-02-09T05:51:40.419Z,94
2023-02-09T05:52:48.251Z,124
2023-02-09T05:53:55.036Z,117
2023-02-09T05:55:01.849Z,99
2023-02-09T05:56:09.727Z,97
2023-02-09T05:57:19.475Z,80
2023-02-09T05:58:27.358Z,96
2023-02-09T05:59:36.338Z,95
2023-02-09T06:00:43.913Z,83
2023-02-09T06:01:51.561Z,79
2023-02-09T06:03:00.110Z,82
2023-02-09T06:04:07.363Z,86
2023-02-09T06:05:19.465Z,85
2023-02-09T06:06:26.419Z,79
2023-02-09T06:07:34.285Z,81
2023-02-09T06:08:41.472Z,75
2023-02-09T06:09:48.629Z,77
2023-02-09T06:10:56.610Z,73
2023-02-09T06:12:03.563Z,68
2023-02-09T06:13:10.659Z,79
2023-02-09T06:14:19.603Z,86
2023-02-09T06:15:26.642Z,94
2023-02-09T06:16:35.987Z,113
2023-02-09T06:17:43.072Z,108
2023-02-09T06:18:50.224Z,112
2023-02-09T06:20:00.096Z,96
2023-02-09T06:21:08.975Z,98
2023-02-09T06:22:23.525Z,88
2023-02-09T06:23:35.175Z,88
2023-02-09T06:24:40.366Z,83
2023-02-09T06:25:47.408Z,83
2023-02-09T06:26:55.774Z,72
2023-02-09T06:28:02.747Z,68
2023-02-09T06:29:09.491Z,78
2023-02-09T06:30:17.404Z,76
2023-02-09T06:31:25.176Z,75
2023-02-09T06:32:31.898Z,82
2023-02-09T06:33:38.877Z,80
2023-02-09T06:34:45.621Z,83
2023-02-09T06:35:52.637Z,79
2023-02-09T06:36:59.247Z,76
2023-02-09T06:38:07.589Z,85
2023-02-09T06:39:17.242Z,88
2023-02-09T06:40:24.385Z,80
2023-02-09T06:41:33.014Z,82
2023-02-09T06:42:39.899Z,82
2023-02-09T06:43:46.734Z,80
2023-02-09T06:44:53.618Z,83
2023-02-09T06:46:00.460Z,78
2023-02-09T06:47:13.017Z,81
2023-02-09T06:48:20.305Z,91
2023-02-09T06:49:27.764Z,90
2023-02-09T06:50:35.619Z,93
2023-02-09T06:51:43.354Z,95
2023-02-09T06:52:50.204Z,101
2023-02-09T06:53:57.484Z,107
2023-02-09T06:55:07.581Z,103
2023-02-09T06:56:15.178Z,102
2023-02-09T06:57:22.431Z,91
2023-02-09T06:58:30.219Z,92
2023-02-09T06:59:38.012Z,90
2023-02-09T07:00:45.242Z,92
2023-02-09T07:01:54.542Z,88
2023-02-09T07:02:59.622Z,83
2023-02-09T07:04:09.173Z,75
2023-02-09T07:05:16.158Z,75
2023-02-09T07:06:23.055Z,73
2023-02-09T07:07:30.634Z,66
2023-02-09T07:08:37.508Z,71
2023-02-09T07:09:44.303Z,76
2023-02-09T07:10:51.119Z,74
2023-02-09T07:11:58.027Z,71
2023-02-09T07:13:04.991Z,70
2023-02-09T07:14:11.755Z,73
2023-02-09T07:15:18.898Z,73
2023-02-09T07:16:26.768Z,69
2023-02-09T07:17:36.599Z,73
2023-02-09T07:18:47.519Z,68
2023-02-09T07:19:54.799Z,71
2023-02-09T07:21:04.564Z,66
2023-02-09T07:22:12.191Z,66
2023-02-09T07:23:22.124Z,65
2023-02-09T07:24:32.038Z,66
2023-02-09T07:25:39.626Z,65
2023-02-09T07:26:47.107Z,55
2023-02-09T07:27:54.051Z,59
2023-02-09T07:29:03.685Z,56
2023-02-09T07:30:13.740Z,62
2023-02-09T07:31:21.486Z,53
2023-02-09T07:32:31.094Z,55
2023-02-09T07:33:38.437Z,48
2023-02-09T07:34:48.337Z,55
2023-02-09T07:35:55.728Z,53
2023-02-09T07:37:03.196Z,56
2023-02-09T07:38:10.223Z,54
2023-02-09T07:39:17.536Z,58
2023-02-09T07:40:24.668Z,54
2023-02-09T07:41:31.956Z,53
2023-02-09T07:42:41.494Z,58
2023-02-09T07:43:48.725Z,57
2023-02-09T07:44:55.893Z,58
2023-02-09T07:46:05.691Z,56
2023-02-09T07:47:15.524Z,53
2023-02-09T07:48:22.555Z,55
2023-02-09T07:49:29.614Z,55
2023-02-09T07:50:39.607Z,59
2023-02-09T07:51:54.146Z,56
2023-02-09T07:53:01.205Z,56
2023-02-09T07:54:12.275Z,54
2023-02-09T07:55:19.624Z,55
2023-02-09T07:56:29.894Z,61
2023-02-09T07:57:37.601Z,58
2023-02-09T07:58:44.655Z,58
2023-02-09T07:59:51.650Z,56
2023-02-09T08:00:59.906Z,58
2023-02-09T08:02:09.354Z,58
2023-02-09T08:03:18.869Z,58
2023-02-09T08:04:26.758Z,63
2023-02-09T08:05:33.792Z,59
2023-02-09T08:06:45.876Z,52
2023-02-09T08:07:55.538Z,57
2023-02-09T08:09:02.995Z,52
2023-02-09T08:10:10.335Z,59
2023-02-09T08:11:17.457Z,54
2023-02-09T08:12:24.578Z,55
2023-02-09T08:13:37.091Z,52
2023-02-09T08:14:46.802Z,55
2023-02-09T08:15:54.578Z,58
2023-02-09T08:17:02.211Z,63
2023-02-09T08:18:14.323Z,61
2023-02-09T08:19:24.307Z,59
2023-02-09T08:20:31.742Z,58
2023-02-09T08:21:41.889Z,60
2023-02-09T08:22:51.839Z,57
2023-02-09T08:24:01.650Z,58
2023-02-09T08:25:08.897Z,59
2023-02-09T08:26:19.018Z,54
2023-02-09T08:27:26.471Z,55
2023-02-09T08:28:43.869Z,60
2023-02-09T08:29:43.662Z,58
2023-02-09T08:30:50.847Z,60
2023-02-09T08:31:57.993Z,58
2023-02-09T08:33:06.216Z,59
2023-02-09T08:34:17.555Z,53
2023-02-09T08:35:25.315Z,54
2023-02-09T08:36:32.864Z,54
2023-02-09T08:37:40.134Z,57
2023-02-09T08:38:50.047Z,52
2023-02-09T08:39:59.628Z,59
2023-02-09T08:41:09.751Z,62
2023-02-09T08:42:16.779Z,60
2023-02-09T08:43:23.743Z,57
2023-02-09T08:44:30.924Z,55
2023-02-09T08:45:39.243Z,55
2023-02-09T08:46:46.237Z,52
2023-02-09T08:47:53.160Z,53
2023-02-09T08:49:04.287Z,53
2023-02-09T08:50:11.421Z,55
2023-02-09T08:51:20.517Z,51
2023-02-09T08:52:28.453Z,52
2023-02-09T08:53:36.026Z,48
2023-02-09T08:54:45.682Z,49
2023-02-09T08:56:10.776Z,45
2023-02-09T08:57:46.704Z,49
2023-02-09T08:59:32.148Z,49
2023-02-09T09:01:43.127Z,54
2023-02-09T09:02:55.088Z,51
2023-02-09T09:04:07.013Z,48
2023-02-09T09:05:32.119Z,50
2023-02-09T09:07:04.036Z,48
2023-02-09T09:08:23.852Z,47
2023-02-09T09:09:39.636Z,49
2023-02-09T09:10:47.313Z,50
2023-02-09T09:12:33.068Z,45
2023-02-09T09:14:15.625Z,43
2023-02-09T09:15:23.578Z,39
2023-02-09T09:16:30.786Z,40
2023-02-09T09:17:38.782Z,41
2023-02-09T09:18:46.779Z,36
2023-02-09T09:19:53.862Z,37
2023-02-09T09:21:13.608Z,38
2023-02-09T09:22:20.852Z,36
2023-02-09T09:23:27.893Z,36
2023-02-09T09:24:35.900Z,41
2023-02-09T09:25:43.283Z,48
2023-02-09T09:26:55.321Z,41
2023-02-09T09:28:02.517Z,40
2023-02-09T09:29:12.432Z,41
2023-02-09T09:30:22.539Z,38
2023-02-09T09:31:34.195Z,42
2023-02-09T09:32:44.079Z,43
2023-02-09T09:33:51.237Z,46
2023-02-09T09:34:58.624Z,46
2023-02-09T09:36:08.673Z,39
2023-02-09T09:37:16.534Z,40
2023-02-09T09:38:26.329Z,40
2023-02-09T09:39:37.397Z,38
2023-02-09T09:40:44.914Z,38
2023-02-09T09:41:52.092Z,41
2023-02-09T09:42:59.681Z,38
2023-02-09T09:44:11.985Z,34
2023-02-09T09:45:24.753Z,44
2023-02-09T09:46:32.543Z,35
2023-02-09T09:47:39.429Z,38
2023-02-09T09:48:49.554Z,40
2023-02-09T09:49:56.482Z,42
2023-02-09T09:51:04.380Z,39
2023-02-09T09:52:22.289Z,45
2023-02-09T09:54:06.681Z,45
2023-02-09T09:55:19.661Z,35
2023-02-09T09:56:29.347Z,35
2023-02-09T09:57:36.736Z,33
2023-02-09T09:58:44.996Z,34
2023-02-09T09:59:51.977Z,35
2023-02-09T10:01:00.987Z,31
2023-02-09T10:02:07.968Z,39
2023-02-09T10:03:17.622Z,31
2023-02-09T10:04:25.700Z,31
2023-02-09T10:05:35.386Z,29
2023-02-09T10:06:42.699Z,33
2023-02-09T10:07:49.732Z,29
2023-02-09T10:09:17.192Z,37
2023-02-09T10:10:39.048Z,35
2023-02-09T10:11:51.358Z,34
2023-02-09T10:13:16.829Z,37
2023-02-09T10:14:57.576Z,27
2023-02-09T10:16:23.257Z,27
2023-02-09T10:17:32.842Z,29
2023-02-09T10:18:40.380Z,45
2023-02-09T10:19:47.537Z,32
2023-02-09T10:21:03.435Z,27
2023-02-09T10:22:14.496Z,23
2023-02-09T10:23:22.983Z,25
2023-02-09T10:24:35.130Z,32
2023-02-09T10:25:43.471Z,25
2023-02-09T10:26:53.198Z,37
2023-02-09T10:28:10.400Z,34
2023-02-09T10:29:25.600Z,30
2023-02-09T10:30:36.886Z,25
2023-02-09T10:31:44.217Z,26
2023-02-09T10:32:54.166Z,25
2023-02-09T10:34:01.183Z,23
2023-02-09T10:35:13.474Z,36
2023-02-09T10:36:28.392Z,30
2023-02-09T10:37:38.026Z,23
2023-02-09T10:38:47.612Z,20
2023-02-09T10:39:55.010Z,21
2023-02-09T10:41:05.941Z,20
2023-02-09T10:42:13.010Z,21
2023-02-09T10:43:28.494Z,23
2023-02-09T10:44:35.966Z,23
2023-02-09T10:45:46.162Z,23
2023-02-09T10:46:58.663Z,26
2023-02-09T10:48:14.039Z,26
2023-02-09T10:49:21.025Z,27
2023-02-09T10:50:36.109Z,32
2023-02-09T10:51:51.632Z,26
2023-02-09T10:53:03.582Z,25
2023-02-09T10:54:18.618Z,29
2023-02-09T10:55:25.517Z,22
2023-02-09T10:56:37.606Z,24
2023-02-09T10:57:47.072Z,32
2023-02-09T10:58:54.605Z,29
2023-02-09T11:00:04.270Z,41
2023-02-09T11:01:16.648Z,23
2023-02-09T11:02:29.455Z,23
2023-02-09T11:03:39.486Z,19
2023-02-09T11:04:48.931Z,20
2023-02-09T11:05:56.448Z,22
2023-02-09T11:07:11.363Z,20
2023-02-09T11:08:18.516Z,20
2023-02-09T11:09:28.080Z,23
2023-02-09T11:10:38.148Z,23
2023-02-09T11:11:47.932Z,25
2023-02-09T11:12:55.295Z,26
2023-02-09T11:14:02.284Z,21
2023-02-09T11:15:12.048Z,21
2023-02-09T11:16:21.440Z,17
2023-02-09T11:17:33.417Z,21
2023-02-09T11:18:43.346Z,18
2023-02-09T11:19:50.321Z,19
2023-02-09T11:21:05.257Z,20
2023-02-09T11:22:22.384Z,19
2023-02-09T11:23:39.269Z,19
2023-02-09T11:24:51.217Z,25
2023-02-09T11:26:08.794Z,20
2023-02-09T11:27:23.882Z,22
2023-02-09T11:28:40.574Z,19
2023-02-09T11:29:55.684Z,21
2023-02-09T11:31:12.867Z,17
2023-02-09T11:32:24.706Z,20
2023-02-09T11:33:40.514Z,22
2023-02-09T11:34:53.134Z,18
2023-02-09T11:36:10.959Z,17
2023-02-09T11:37:23.370Z,16
2023-02-09T11:38:38.523Z,24
2023-02-09T11:39:53.170Z,16
2023-02-09T11:41:00.083Z,21
2023-02-09T11:42:07.984Z,22
2023-02-09T11:43:20.064Z,20
2023-02-09T11:44:37.314Z,18
2023-02-09T11:45:47.341Z,14
2023-02-09T11:46:54.875Z,16
2023-02-09T11:48:02.372Z,18
2023-02-09T11:49:17.423Z,18
2023-02-09T11:50:24.342Z,17
2023-02-09T11:51:39.605Z,15
2023-02-09T11:52:46.503Z,19
2023-02-09T11:53:53.725Z,18
2023-02-09T11:55:08.694Z,17
2023-02-09T11:56:21.102Z,17
2023-02-09T11:57:28.042Z,19
2023-02-09T11:58:40.453Z,18
2023-02-09T11:59:52.455Z,18
2023-02-09T12:01:14.529Z,21
2023-02-09T12:02:14.858Z,20
2023-02-09T12:03:32.058Z,17
2023-02-09T12:04:39.005Z,15
2023-02-09T12:05:56.016Z,19
2023-02-09T12:07:05.658Z,17
2023-02-09T12:08:28.002Z,18
2023-02-09T12:09:38.413Z,20
2023-02-09T12:10:51.125Z,20
2023-02-09T12:12:10.813Z,17
2023-02-09T12:13:20.173Z,22
2023-02-09T12:14:40.188Z,20
2023-02-09T12:15:57.174Z,19
2023-02-09T12:17:07.106Z,18
2023-02-09T12:18:19.997Z,19
2023-02-09T12:19:29.717Z,18
2023-02-09T12:20:42.187Z,20
2023-02-09T12:21:57.343Z,21
2023-02-09T12:23:15.180Z,31
2023-02-09T12:24:35.171Z,33
2023-02-09T12:25:42.254Z,26
2023-02-09T12:26:57.017Z,23
2023-02-09T12:28:05.508Z,25
2023-02-09T12:29:12.457Z,23
2023-02-09T12:30:29.651Z,17
2023-02-09T12:31:47.028Z,16
2023-02-09T12:33:04.499Z,18
2023-02-09T12:34:21.557Z,15
2023-02-09T12:35:36.392Z,16
2023-02-09T12:36:45.935Z,15
2023-02-09T12:38:00.556Z,18
2023-02-09T12:39:10.662Z,16
2023-02-09T12:40:25.533Z,17
2023-02-09T12:41:38.985Z,18
2023-02-09T12:42:44.574Z,19
2023-02-09T12:43:57.248Z,21
2023-02-09T12:45:09.702Z,19
2023-02-09T12:46:26.898Z,20
2023-02-09T12:47:36.568Z,19
2023-02-09T12:48:49.009Z,22
2023-02-09T12:50:06.488Z,20
2023-02-09T12:51:16.061Z,19
2023-02-09T12:52:35.796Z,18
2023-02-09T12:53:43.318Z,18
2023-02-09T12:54:52.927Z,19
2023-02-09T12:56:00.728Z,17
2023-02-09T12:57:10.628Z,16
2023-02-09T12:58:17.835Z,14
2023-02-09T12:59:34.916Z,16
2023-02-09T13:00:44.760Z,18
2023-02-09T13:01:51.921Z,19
2023-02-09T13:03:09.457Z,18
2023-02-09T13:04:17.032Z,15
2023-02-09T13:05:24.155Z,16
2023-02-09T13:06:34.626Z,18
2023-02-09T13:07:49.355Z,16
2023-02-09T13:09:08.950Z,19
2023-02-09T13:10:21.132Z,18
2023-02-09T13:11:39.430Z,16
2023-02-09T13:12:46.277Z,18
2023-02-09T13:13:56.312Z,16
2023-02-09T13:15:03.509Z,19
2023-02-09T13:16:14.849Z,18
2023-02-09T13:17:27.488Z,17
2023-02-09T13:18:42.434Z,18
2023-02-09T13:19:54.353Z,17
2023-02-09T13:21:11.635Z,18
2023-02-09T13:22:23.595Z,19
2023-02-09T13:23:36.470Z,22
2023-02-09T13:24:48.498Z,21
2023-02-09T13:26:03.469Z,22
2023-02-09T13:27:15.501Z,22
2023-02-09T13:28:22.733Z,22
2023-02-09T13:29:32.000Z,24
2023-02-09T13:30:39.522Z,20
2023-02-09T13:31:49.222Z,15
2023-02-09T13:33:08.060Z,16
2023-02-09T13:34:28.795Z,14
2023-02-09T13:35:41.550Z,15
2023-02-09T13:36:49.324Z,17
2023-02-09T13:38:02.196Z,22
2023-02-09T13:39:35.880Z,14
2023-02-09T13:40:48.433Z,21
2023-02-09T13:41:56.048Z,34
2023-02-09T13:43:03.590Z,16
2023-02-09T13:44:16.008Z,13
2023-02-09T13:45:26.823Z,24
2023-02-09T13:46:36.616Z,16
2023-02-09T13:47:43.842Z,23
2023-02-09T13:48:50.955Z,17
2023-02-09T13:49:58.919Z,16
2023-02-09T13:51:16.980Z,15
2023-02-09T13:52:26.752Z,16
2023-02-09T13:53:36.364Z,15
2023-02-09T13:54:43.321Z,16
2023-02-09T13:55:50.900Z,14
2023-02-09T13:56:58.057Z,14
2023-02-09T13:58:42.224Z,16
2023-02-09T13:59:49.180Z,14
2023-02-09T14:00:56.311Z,18
2023-02-09T14:02:08.333Z,15
2023-02-09T14:03:21.381Z,15
2023-02-09T14:04:32.488Z,15
2023-02-09T14:05:39.512Z,17
2023-02-09T14:06:52.318Z,14
2023-02-09T14:08:09.124Z,14
2023-02-09T14:09:20.828Z,16
2023-02-09T14:10:29.563Z,19
2023-02-09T14:11:42.528Z,17
2023-02-09T14:12:48.419Z,19
2023-02-09T14:14:00.762Z,19
2023-02-09T14:15:07.683Z,21
2023-02-09T14:16:20.573Z,19
2023-02-09T14:17:28.396Z,21
2023-02-09T14:18:39.683Z,19
2023-02-09T14:19:52.575Z,14
2023-02-09T14:20:59.468Z,16
2023-02-09T14:22:14.511Z,17
2023-02-09T14:23:31.509Z,18
2023-02-09T14:24:38.772Z,18
2023-02-09T14:25:46.554Z,17
2023-02-09T14:26:53.457Z,15
2023-02-09T14:28:04.359Z,17
2023-02-09T14:29:11.583Z,18
2023-02-09T14:30:24.086Z,19
2023-02-09T14:31:30.979Z,18
2023-02-09T14:32:38.041Z,17
2023-02-09T14:33:45.045Z,16
2023-02-09T14:34:54.422Z,16
2023-02-09T14:36:01.330Z,17
2023-02-09T14:37:08.528Z,19
2023-02-09T14:38:21.614Z,19
2023-02-09T14:39:36.504Z,20
2023-02-09T14:40:57.798Z,23
2023-02-09T14:42:05.785Z,21
2023-02-09T14:43:13.758Z,23
2023-02-09T14:44:20.692Z,17
2023-02-09T14:45:32.108Z,24
2023-02-09T14:46:44.281Z,19
2023-02-09T14:47:54.908Z,20
2023-02-09T14:49:02.445Z,21
2023-02-09T14:50:12.510Z,25
2023-02-09T14:51:19.847Z,22
2023-02-09T14:52:30.848Z,20
2023-02-09T14:53:37.843Z,19
2023-02-09T14:54:44.848Z,17
2023-02-09T14:55:51.908Z,16
2023-02-09T14:56:58.914Z,19
2023-02-09T14:58:10.082Z,18
2023-02-09T14:59:22.308Z,16
2023-02-09T15:00:32.125Z,16
2023-02-09T15:01:42.191Z,18
2023-02-09T15:02:51.792Z,17
2023-02-09T15:03:59.257Z,22
2023-02-09T15:05:06.629Z,17
2023-02-09T15:06:13.879Z,18
2023-02-09T15:07:20.831Z,18
2023-02-09T15:08:30.279Z,18
2023-02-09T15:09:38.235Z,18
2023-02-09T15:10:45.584Z,18
2023-02-09T15:12:00.847Z,17
2023-02-09T15:13:11.926Z,18
2023-02-09T15:14:18.689Z,19
2023-02-09T15:15:28.626Z,20
2023-02-09T15:16:36.006Z,20
2023-02-09T15:17:45.791Z,21
2023-02-09T15:18:53.448Z,23
2023-02-09T15:20:03.018Z,26
2023-02-09T15:21:10.508Z,27
2023-02-09T15:22:17.410Z,28
2023-02-09T15:23:24.806Z,36
2023-02-09T15:24:31.742Z,32
2023-02-09T15:25:38.870Z,26
2023-02-09T15:26:46.045Z,30
2023-02-09T15:27:54.198Z,29
2023-02-09T15:29:01.155Z,31
2023-02-09T15:30:14.019Z,33
2023-02-09T15:31:21.109Z,32
2023-02-09T15:32:29.090Z,34
2023-02-09T15:33:36.326Z,34
2023-02-09T15:34:43.301Z,32
2023-02-09T15:35:50.397Z,30
2023-02-09T15:36:58.220Z,31
2023-02-09T15:38:07.873Z,29
2023-02-09T15:39:16.529Z,26
2023-02-09T15:40:26.658Z,27
2023-02-09T15:41:46.368Z,26
2023-02-09T15:42:58.811Z,29
2023-02-09T15:44:13.810Z,27
2023-02-09T15:45:26.512Z,29
2023-02-09T15:46:41.324Z,28
2023-02-09T15:47:53.192Z,31
2023-02-09T15:49:03.168Z,33
2023-02-09T15:50:10.264Z,36
2023-02-09T15:51:18.198Z,40
2023-02-09T15:52:25.435Z,40
2023-02-09T15:53:33.875Z,36
2023-02-09T15:54:43.610Z,36
2023-02-09T15:55:50.832Z,30
2023-02-09T15:56:58.704Z,28
2023-02-09T15:58:09.756Z,26
2023-02-09T15:59:19.745Z,26
2023-02-09T16:00:27.946Z,26
2023-02-09T16:01:38.635Z,27
2023-02-09T16:02:50.068Z,27
2023-02-09T16:04:05.319Z,30
2023-02-09T16:05:04.795Z,30
2023-02-09T16:06:12.474Z,31
2023-02-09T16:07:23.724Z,34
2023-02-09T16:08:31.017Z,42
2023-02-09T16:09:38.146Z,40
2023-02-09T16:10:47.758Z,37
2023-02-09T16:11:58.187Z,39
2023-02-09T16:13:07.328Z,41
2023-02-09T16:14:15.916Z,45
2023-02-09T16:15:26.211Z,44
2023-02-09T16:16:38.689Z,49
2023-02-09T16:17:46.091Z,51
2023-02-09T16:18:56.168Z,48
2023-02-09T16:20:04.061Z,53
2023-02-09T16:21:15.161Z,51
2023-02-09T16:22:25.767Z,51
2023-02-09T16:23:33.298Z,41
2023-02-09T16:24:41.782Z,38